createdAt,value
2022-11-15T00:01:56.423Z,62409.59
2022-11-15T00:04:42.444Z,62409.59
2022-11-15T00:07:54.128Z,62409.59
2022-11-15T00:10:34.460Z,62409.59
2022-11-15T00:13:20.391Z,62409.59
2022-11-15T00:16:06.635Z,62409.59
2022-11-15T00:18:52.975Z,62409.59
2022-11-15T00:21:38.515Z,62409.59
2022-11-15T00:24:24.816Z,62409.59
2022-11-15T00:27:10.866Z,62409.59
2022-11-15T00:29:57.393Z,62409.59
2022-11-15T00:32:43.429Z,62409.59
2022-11-15T00:35:30.047Z,62409.59
2022-11-15T00:38:16.022Z,62409.59
2022-11-15T00:41:08.887Z,62409.59
2022-11-15T00:43:55.682Z,62409.59
2022-11-15T00:46:41.721Z,62409.59
2022-11-15T00:49:27.400Z,62409.59
2022-11-15T00:52:13.511Z,62409.59
2022-11-15T00:54:59.391Z,62409.59
2022-11-15T00:57:45.887Z,62409.59
2022-11-15T01:00:35.221Z,62409.59
2022-11-15T01:03:21.697Z,62409.59
2022-11-15T01:06:08.494Z,62409.59
2022-11-15T01:08:54.470Z,62409.59
2022-11-15T01:11:40.686Z,62409.59
2022-11-15T01:14:27.038Z,62409.59
2022-11-15T01:17:12.960Z,62409.59
2022-11-15T01:19:58.915Z,62409.59
2022-11-15T01:22:44.809Z,62409.59
2022-11-15T01:25:30.966Z,62409.59
2022-11-15T01:28:16.650Z,62409.59
2022-11-15T01:31:05.468Z,62409.59
2022-11-15T01:33:51.610Z,62409.59
2022-11-15T01:36:38.031Z,62409.59
2022-11-15T01:39:23.891Z,62409.59
2022-11-15T01:42:14.455Z,62409.59
2022-11-15T01:45:00.291Z,62409.59
2022-11-15T01:47:52.404Z,62409.59
2022-11-15T01:50:38.825Z,62409.59
2022-11-15T01:53:27.327Z,62409.59
2022-11-15T01:56:17.847Z,62409.59
2022-11-15T01:59:07.700Z,62409.59
2022-11-15T02:01:53.809Z,62409.59
2022-11-15T02:04:49.545Z,62409.59
2022-11-15T02:07:37.346Z,62409.59
2022-11-15T02:10:25.273Z,62409.59
2022-11-15T02:13:11.601Z,62409.59
2022-11-15T02:16:07.826Z,62409.59
2022-11-15T02:19:16.028Z,62409.59
2022-11-15T02:22:20.873Z,62409.59
2022-11-15T02:25:09.362Z,62409.59
2022-11-15T02:28:04.155Z,62409.59
2022-11-15T02:31:01.382Z,62409.59
2022-11-15T02:33:53.508Z,62409.59
2022-11-15T02:37:00.741Z,62409.59
2022-11-15T02:40:15.950Z,62409.59
2022-11-15T02:43:28.101Z,62409.59
2022-11-15T02:46:18.205Z,62409.59
2022-11-15T02:49:04.202Z,62409.59
2022-11-15T02:51:52.209Z,62409.59
2022-11-15T02:54:38.396Z,62409.59
2022-11-15T02:57:39.609Z,62409.59
2022-11-15T03:00:25.464Z,62409.59
2022-11-15T03:03:11.754Z,62409.59
2022-11-15T03:06:31.777Z,62409.59
2022-11-15T03:09:37.168Z,62409.59
2022-11-15T03:12:47.799Z,62409.59
2022-11-15T03:15:50.841Z,62409.59
2022-11-15T03:18:42.023Z,62409.59
2022-11-15T03:21:33.556Z,62409.59
2022-11-15T03:24:26.059Z,62409.59
2022-11-15T03:27:18.299Z,62409.59
2022-11-15T03:30:10.778Z,62409.59
2022-11-15T03:33:01.780Z,62409.59
2022-11-15T03:35:49.698Z,62409.59
2022-11-15T03:38:36.801Z,62409.59
2022-11-15T03:41:51.684Z,62409.59
2022-11-15T03:44:49.129Z,62409.59
2022-11-15T03:47:39.819Z,62409.59
2022-11-15T03:50:27.132Z,62409.59
2022-11-15T03:53:13.849Z,62409.59
2022-11-15T03:56:00.148Z,62409.59
2022-11-15T03:58:46.075Z,62409.59
2022-11-15T04:01:32.453Z,62409.59
2022-11-15T04:04:18.130Z,62409.59
2022-11-15T04:07:04.600Z,62409.59
2022-11-15T04:10:06.517Z,62409.59
2022-11-15T04:12:52.807Z,62409.59
2022-11-15T04:15:38.897Z,62409.59
2022-11-15T04:18:25.560Z,62409.59
2022-11-15T04:21:29.662Z,62409.59
2022-11-15T04:24:16.185Z,62409.59
2022-11-15T04:27:02.241Z,62409.59
2022-11-15T04:29:48.207Z,62409.59
2022-11-15T04:32:34.420Z,62409.59
2022-11-15T04:35:20.830Z,62409.59
2022-11-15T04:38:08.404Z,62409.59
2022-11-15T04:40:54.834Z,62409.59
2022-11-15T04:43:40.790Z,62409.59
2022-11-15T04:46:26.929Z,62409.59
2022-11-15T04:49:12.926Z,62409.59
2022-11-15T04:51:59.040Z,62409.59
2022-11-15T04:54:45.816Z,62409.59
2022-11-15T04:57:32.329Z,62409.59
2022-11-15T05:00:18.404Z,62409.59
2022-11-15T05:03:23.614Z,62409.59
2022-11-15T05:06:09.664Z,62409.59
2022-11-15T05:08:56.580Z,62409.59
2022-11-15T05:11:42.629Z,62409.59
2022-11-15T05:14:28.995Z,62409.59
2022-11-15T05:17:14.802Z,62409.59
2022-11-15T05:20:01.204Z,62409.59
2022-11-15T05:22:47.054Z,62409.59
2022-11-15T05:25:33.553Z,62409.59
2022-11-15T05:28:19.614Z,62409.59
2022-11-15T05:31:06.615Z,62409.59
2022-11-15T05:33:53.202Z,62409.59
2022-11-15T05:36:43.408Z,62409.59
2022-11-15T05:39:29.221Z,62409.59
2022-11-15T05:42:17.027Z,62409.59
2022-11-15T05:45:05.940Z,62409.59
2022-11-15T05:47:53.954Z,62409.59
2022-11-15T05:50:42.648Z,62409.59
2022-11-15T05:53:29.466Z,62409.59
2022-11-15T05:56:15.645Z,62409.59
2022-11-15T05:59:02.365Z,62409.59
2022-11-15T06:01:48.197Z,62409.59
2022-11-15T06:04:34.249Z,62409.59
2022-11-15T06:07:20.379Z,62409.59
2022-11-15T06:10:06.944Z,62409.59
2022-11-15T06:13:04.359Z,62409.59
2022-11-15T06:15:50.439Z,62409.59
2022-11-15T06:18:37.251Z,62409.59
2022-11-15T06:21:23.818Z,62409.59
2022-11-15T06:24:09.349Z,62409.59
2022-11-15T06:26:55.375Z,62409.59
2022-11-15T06:29:41.147Z,62409.59
2022-11-15T06:32:27.489Z,62409.59
2022-11-15T06:35:14.070Z,62409.59
2022-11-15T06:38:09.067Z,62409.59
2022-11-15T06:40:54.990Z,62409.59
2022-11-15T06:43:42.004Z,62409.59
2022-11-15T06:46:28.074Z,62409.59
2022-11-15T06:49:14.310Z,62409.59
2022-11-15T06:52:00.234Z,62409.59
2022-11-15T06:54:46.747Z,62409.59
2022-11-15T06:57:33.487Z,62409.59
2022-11-15T07:00:20.580Z,62409.59
2022-11-15T07:03:06.422Z,62409.59
2022-11-15T07:05:54.810Z,62409.59
2022-11-15T07:08:40.481Z,62409.59
2022-11-15T07:11:26.853Z,62409.59
2022-11-15T07:14:12.988Z,62409.59
2022-11-15T07:16:59.303Z,62409.59
2022-11-15T07:19:45.151Z,62409.59
2022-11-15T07:22:31.243Z,62409.59
2022-11-15T07:25:17.292Z,62409.59
2022-11-15T07:28:04.832Z,62409.59
2022-11-15T07:30:51.781Z,62409.59
2022-11-15T07:33:38.535Z,62409.59
2022-11-15T07:36:24.276Z,62409.59
2022-11-15T07:39:11.235Z,62409.59
2022-11-15T07:42:16.810Z,62409.59
2022-11-15T07:45:03.143Z,62409.59
2022-11-15T07:47:50.394Z,62409.59
2022-11-15T07:50:36.811Z,62409.59
2022-11-15T07:53:23.324Z,62409.59
2022-11-15T07:56:10.571Z,62409.59
2022-11-15T07:58:56.393Z,62409.59
2022-11-15T08:01:42.693Z,62409.59
2022-11-15T08:04:28.826Z,62409.59
2022-11-15T08:07:15.021Z,62409.59
2022-11-15T08:10:02.402Z,62409.59
2022-11-15T08:12:48.649Z,62409.59
2022-11-15T08:15:35.836Z,62409.59
2022-11-15T08:48:12.302Z,95001.44
2022-11-15T08:50:58.611Z,95018.03
2022-11-15T08:53:44.611Z,95020.03
2022-11-15T08:56:30.851Z,95012.56
2022-11-15T08:59:16.753Z,95009.09
2022-11-15T09:02:03.135Z,95016.81
2022-11-15T09:04:49.250Z,94999.63
2022-11-15T09:07:35.587Z,94990.47
2022-11-15T09:10:21.233Z,94988.06
2022-11-15T09:13:07.232Z,95008.47
2022-11-15T09:15:52.795Z,95003.63
2022-11-15T09:18:38.837Z,95009.59
2022-11-15T09:21:24.707Z,94996.38
2022-11-15T09:24:10.881Z,94999.19
2022-11-15T09:26:56.803Z,94975.94
2022-11-15T09:29:43.006Z,94999.59
2022-11-15T09:32:37.838Z,94996.72
2022-11-15T09:35:24.993Z,94998.88
2022-11-15T09:38:10.975Z,94985.09
2022-11-15T09:41:15.216Z,94988.03
2022-11-15T09:44:17.992Z,94973.44
2022-11-15T09:47:16.085Z,94981.31
2022-11-15T09:50:09.805Z,94981.53
2022-11-15T09:52:39.784Z,94968.38
2022-11-15T09:55:11.413Z,94965.66
2022-11-15T09:57:48.517Z,94956.72
2022-11-15T10:00:47.677Z,94958.13
2022-11-15T10:03:19.495Z,94948.66
2022-11-15T10:05:51.906Z,94945.34
2022-11-15T10:08:38.371Z,94944.69
2022-11-15T10:14:10.253Z,94912.41
2022-11-15T10:16:40.410Z,94917.94
2022-11-15T10:19:26.836Z,94919.16
2022-11-15T10:22:27.050Z,94886.91
2022-11-15T10:25:10.008Z,94894.81
2022-11-15T10:27:37.652Z,94884.41
2022-11-15T10:30:11.431Z,94879.59
2022-11-15T10:32:39.491Z,94879.03
2022-11-15T10:35:27.113Z,94879.56
2022-11-15T10:38:09.951Z,94892.28
2022-11-15T10:40:39.825Z,94872.38
2022-11-15T10:43:20.587Z,94887.22
2022-11-15T10:45:48.512Z,94879.13
2022-11-15T10:48:15.596Z,94879.13
2022-11-15T10:50:48.095Z,94873.84
2022-11-15T10:53:45.046Z,94867.72
2022-11-15T10:56:16.933Z,94871.25
2022-11-15T10:58:51.721Z,94845.81
2022-11-15T11:01:23.211Z,94862.78
2022-11-15T11:04:06.654Z,94852.69
2022-11-15T11:06:58.424Z,94857.06
2022-11-15T11:09:36.752Z,94847.19
2022-11-15T11:12:10.944Z,94839.13
2022-11-15T11:14:40.107Z,94811.31
2022-11-15T11:17:13.530Z,94820.91
2022-11-15T11:20:08.800Z,94822.75
2022-11-15T11:22:58.792Z,94809.88
2022-11-15T11:25:26.064Z,94814.16
2022-11-15T11:27:59.882Z,94796.19
2022-11-15T11:31:01.326Z,94808.75
2022-11-15T11:33:36.381Z,94810.84
2022-11-15T11:36:24.643Z,94797.94
2022-11-15T11:39:12.850Z,94790.06
2022-11-15T11:41:55.553Z,94784.19
2022-11-15T11:44:46.453Z,94786.06
2022-11-15T11:47:25.491Z,94782.41
2022-11-15T11:49:57.734Z,94778.69
2022-11-15T11:53:03.941Z,94781.16
2022-11-15T11:56:00.371Z,94785.97
2022-11-15T11:59:12.367Z,94765.84
2022-11-15T12:01:44.598Z,94762.38
2022-11-15T12:04:30.712Z,94763.69
2022-11-15T12:07:03.248Z,94750.03
2022-11-15T12:09:45.481Z,94756.22
2022-11-15T12:12:31.593Z,94755.97
2022-11-15T12:15:11.077Z,94759.56
2022-11-15T12:17:42.546Z,94757.94
2022-11-15T12:20:24.023Z,94756.91
2022-11-15T12:23:12.040Z,94757.44
2022-11-15T12:30:22.512Z,94736.56
2022-11-15T12:33:00.031Z,94738.72
2022-11-15T12:35:46.370Z,94731.19
2022-11-15T12:38:34.530Z,94724.25
2022-11-15T12:41:23.880Z,94730.38
2022-11-15T12:43:51.814Z,94734.69
2022-11-15T12:46:30.805Z,94716.22
2022-11-15T12:48:58.639Z,94705.75
2022-11-15T12:51:44.382Z,94708.72
2022-11-15T12:54:24.337Z,94693.72
2022-11-15T12:57:21.262Z,94710.34
2022-11-15T12:59:56.535Z,94702.28
2022-11-15T13:02:33.294Z,94696.66
2022-11-15T13:05:16.239Z,94685.38
2022-11-15T13:07:43.386Z,94678.97
2022-11-15T13:10:13.933Z,94681.88
2022-11-15T13:12:47.071Z,94672.00
2022-11-15T13:15:14.585Z,94682.97
2022-11-15T13:17:41.823Z,94673.03
2022-11-15T13:20:09.571Z,94669.03
2022-11-15T13:23:00.398Z,94672.50
2022-11-15T13:25:34.087Z,94668.47
2022-11-15T13:28:07.651Z,94673.34
2022-11-15T13:30:35.605Z,94655.97
2022-11-15T13:33:11.882Z,94644.47
2022-11-15T13:35:46.608Z,94671.78
2022-11-15T13:38:31.808Z,94661.06
2022-11-15T13:41:01.260Z,94656.25
2022-11-15T13:43:36.476Z,94657.06
2022-11-15T13:46:17.702Z,94659.22
2022-11-15T13:48:47.483Z,94659.44
2022-11-15T13:51:22.611Z,94654.66
2022-11-15T13:53:59.017Z,94648.47
2022-11-15T13:56:29.182Z,94653.03
2022-11-15T13:58:56.561Z,94651.44
2022-11-15T14:01:33.020Z,94648.50
2022-11-15T14:04:04.615Z,94648.19
2022-11-15T14:06:32.862Z,94654.38
2022-11-15T14:09:12.233Z,94654.91
2022-11-15T14:11:52.528Z,94645.00
2022-11-15T14:14:23.414Z,94642.31
2022-11-15T14:17:00.443Z,94637.53
2022-11-15T14:19:27.722Z,94634.31
2022-11-15T14:22:13.319Z,94635.38
2022-11-15T14:24:44.367Z,94614.53
2022-11-15T14:27:30.243Z,94627.38
2022-11-15T14:29:57.836Z,94628.16
2022-11-15T14:32:28.171Z,94612.91
2022-11-15T14:35:03.073Z,94620.66
2022-11-15T14:37:35.266Z,94621.72
2022-11-15T14:40:04.958Z,94610.25
2022-11-15T14:42:33.113Z,94600.34
2022-11-15T14:45:00.455Z,94616.94
2022-11-15T14:47:27.955Z,94620.41
2022-11-15T14:49:55.225Z,94614.53
2022-11-15T14:52:33.176Z,94615.59
2022-11-15T14:55:04.044Z,94615.03
2022-11-15T14:57:32.184Z,94600.06
2022-11-15T14:59:59.346Z,94608.63
2022-11-15T15:02:41.896Z,94608.91
2022-11-15T15:05:34.031Z,94598.47
2022-11-15T15:08:02.634Z,94573.31
2022-11-15T15:10:42.406Z,94599.53
2022-11-15T15:13:22.552Z,94592.59
2022-11-15T15:15:52.182Z,94592.84
2022-11-15T15:18:21.106Z,94587.50
2022-11-15T15:20:57.200Z,94576.25
2022-11-15T15:23:26.787Z,94586.44
2022-11-15T15:25:54.424Z,94578.66
2022-11-15T15:28:21.979Z,94578.09
2022-11-15T15:30:50.676Z,94589.91
2022-11-15T15:33:18.497Z,94581.88
2022-11-15T15:35:45.893Z,94585.34
2022-11-15T15:38:13.901Z,94587.75
2022-11-15T15:40:41.353Z,94581.88
2022-11-15T15:43:10.414Z,94588.81
2022-11-15T15:45:41.197Z,94571.94
2022-11-15T15:48:17.531Z,94581.84
2022-11-15T15:50:44.845Z,94580.78
2022-11-15T15:53:13.912Z,94584.53
2022-11-15T15:55:41.902Z,94575.44
2022-11-15T15:58:09.765Z,94572.50
2022-11-15T16:00:38.011Z,94561.81
2022-11-15T16:03:05.873Z,94568.25
2022-11-15T16:05:33.064Z,94548.16
2022-11-15T16:08:00.820Z,94554.06
2022-11-15T16:10:30.635Z,94561.53
2022-11-15T16:12:59.263Z,94561.25
2022-11-15T16:15:32.034Z,94567.41
2022-11-15T16:18:02.543Z,94565.81
2022-11-15T16:20:45.580Z,94555.13
2022-11-15T16:23:18.979Z,94558.88
2022-11-15T16:25:52.808Z,94559.94
2022-11-15T16:28:31.233Z,94544.94
2022-11-15T16:31:12.687Z,94554.31
2022-11-15T16:33:41.418Z,94555.66
2022-11-15T16:36:29.480Z,94552.69
2022-11-15T16:38:59.625Z,94546.03
2022-11-15T16:41:27.603Z,94555.09
2022-11-15T16:43:55.484Z,94545.44
2022-11-15T16:46:24.936Z,94552.94
2022-11-15T16:48:54.145Z,94552.41
2022-11-15T16:51:21.759Z,94551.09
2022-11-15T16:53:50.271Z,94540.66
2022-11-15T16:56:34.915Z,94541.47
2022-11-15T16:59:02.816Z,94545.22
2022-11-15T17:01:50.893Z,94524.34
2022-11-15T17:04:20.636Z,94528.09
2022-11-15T17:06:48.882Z,94538.50
2022-11-15T17:09:25.685Z,94534.25
2022-11-15T17:11:53.183Z,94539.56
2022-11-15T17:14:20.842Z,94535.31
2022-11-15T17:16:48.699Z,94537.72
2022-11-15T17:19:20.530Z,94538.22
2022-11-15T17:21:52.295Z,94535.31
2022-11-15T17:24:21.344Z,94524.03
2022-11-15T17:26:48.804Z,94527.78
2022-11-15T17:29:16.483Z,94516.56
2022-11-15T17:31:44.531Z,94529.38
2022-11-15T17:34:12.286Z,94524.03
2022-11-15T17:36:39.933Z,94508.56
2022-11-15T17:39:07.781Z,94519.78
2022-11-15T17:41:35.161Z,94526.72
2022-11-15T17:44:03.845Z,94525.88
2022-11-15T17:46:31.598Z,94501.56
2022-11-15T17:49:00.012Z,94513.06
2022-11-15T17:51:27.565Z,94511.47
2022-11-15T17:53:56.965Z,94507.41
2022-11-15T17:56:26.417Z,94512.22
2022-11-15T17:58:59.362Z,62409.59
2022-11-15T18:01:32.416Z,62409.59
2022-11-15T18:04:02.322Z,62409.59
2022-11-15T18:06:34.604Z,62409.59
2022-11-15T18:09:04.321Z,62409.59
2022-11-15T18:11:38.659Z,62409.59
2022-11-15T18:14:09.174Z,62409.59
2022-11-15T18:16:37.972Z,62409.59
2022-11-15T18:19:13.515Z,62409.59
2022-11-15T18:22:00.731Z,62409.59
2022-11-15T18:24:35.185Z,62409.59
2022-11-15T18:27:05.506Z,62409.59
2022-11-15T18:29:35.814Z,62409.59
2022-11-15T18:32:06.600Z,62409.59
2022-11-15T18:34:34.522Z,62409.59
2022-11-15T18:37:03.571Z,62409.59
2022-11-15T18:39:31.497Z,62409.59
2022-11-15T18:41:59.145Z,62409.59
2022-11-15T18:44:29.493Z,62409.59
2022-11-15T18:46:57.454Z,62409.59
2022-11-15T18:49:25.284Z,62409.59
2022-11-15T18:51:52.714Z,62409.59
2022-11-15T18:54:20.412Z,62409.59
2022-11-15T18:56:48.296Z,62409.59
2022-11-15T18:59:16.511Z,62409.59
2022-11-15T19:01:48.744Z,62409.59
2022-11-15T19:04:18.984Z,62409.59
2022-11-15T19:06:49.360Z,62409.59
2022-11-15T19:09:19.693Z,62409.59
2022-11-15T19:11:51.761Z,62409.59
2022-11-15T19:14:24.501Z,62409.59
2022-11-15T19:16:52.881Z,62409.59
2022-11-15T19:19:27.985Z,62409.59
2022-11-15T19:21:57.362Z,62409.59
2022-11-15T19:24:27.561Z,62409.59
2022-11-15T19:26:55.413Z,62409.59
2022-11-15T19:29:23.465Z,62409.59
2022-11-15T19:31:51.043Z,62409.59
2022-11-15T19:34:19.099Z,62409.59
2022-11-15T19:36:46.552Z,62409.59
2022-11-15T19:39:18.347Z,62409.59
2022-11-15T19:41:47.407Z,62409.59
2022-11-15T19:44:15.331Z,62409.59
2022-11-15T19:46:44.573Z,62409.59
2022-11-15T19:49:12.471Z,62409.59
2022-11-15T19:51:42.830Z,62409.59
2022-11-15T19:54:11.365Z,62409.59
2022-11-15T19:56:40.183Z,62409.59
2022-11-15T19:59:09.143Z,62409.59
2022-11-15T20:01:38.983Z,62409.59
2022-11-15T20:04:08.352Z,62409.59
2022-11-15T20:06:42.497Z,62409.59
2022-11-15T20:09:16.043Z,62409.59
2022-11-15T20:11:43.895Z,62409.59
2022-11-15T20:14:13.295Z,62409.59
2022-11-15T20:16:41.731Z,62409.59
2022-11-15T20:19:09.594Z,62409.59
2022-11-15T20:21:37.045Z,62409.59
2022-11-15T20:24:07.133Z,62409.59
2022-11-15T20:26:35.813Z,62409.59
2022-11-15T20:29:04.203Z,62409.59
2022-11-15T20:31:32.063Z,62409.59
2022-11-15T20:34:00.370Z,62409.59
2022-11-15T20:36:28.301Z,62409.59
2022-11-15T20:38:59.917Z,62409.59
2022-11-15T20:41:28.391Z,62409.59
2022-11-15T20:43:56.492Z,62409.59
2022-11-15T20:46:23.744Z,62409.59
2022-11-15T20:48:51.475Z,62409.59
2022-11-15T20:51:19.154Z,62409.59
2022-11-15T20:53:47.857Z,62409.59
2022-11-15T20:56:17.935Z,62409.59
2022-11-15T20:58:46.192Z,62409.59
2022-11-15T21:01:15.768Z,62409.59
2022-11-15T21:03:44.259Z,62409.59
2022-11-15T21:06:12.111Z,62409.59
2022-11-15T21:08:58.403Z,62409.59
2022-11-15T21:11:45.572Z,62409.59
2022-11-15T21:14:13.479Z,62409.59
2022-11-15T21:16:42.095Z,62409.59
2022-11-15T21:19:09.731Z,62409.59
2022-11-15T21:21:38.649Z,62409.59
2022-11-15T21:24:09.404Z,62409.59
2022-11-15T21:26:37.452Z,62409.59
2022-11-15T21:29:05.432Z,62409.59
2022-11-15T21:31:32.905Z,62409.59
2022-11-15T21:34:04.116Z,62409.59
2022-11-15T21:36:31.426Z,62409.59
2022-11-15T21:38:59.087Z,62409.59
2022-11-15T21:41:26.534Z,62409.59
2022-11-15T21:43:59.241Z,62409.59
2022-11-15T21:46:27.613Z,62409.59
2022-11-15T21:48:56.412Z,62409.59
2022-11-15T21:51:24.462Z,62409.59
2022-11-15T21:53:56.587Z,62409.59
2022-11-15T21:56:25.830Z,62409.59
2022-11-15T21:58:54.492Z,62409.59
2022-11-15T22:01:41.998Z,62409.59
2022-11-15T22:04:10.024Z,62409.59
2022-11-15T22:06:37.766Z,62409.59
2022-11-15T22:09:06.769Z,62409.59
2022-11-15T22:11:34.837Z,62409.59
2022-11-15T22:14:03.447Z,62409.59
2022-11-15T22:16:31.442Z,62409.59
2022-11-15T22:18:59.578Z,62409.59
2022-11-15T22:21:27.078Z,62409.59
2022-11-15T22:23:54.957Z,62409.59
2022-11-15T22:26:23.965Z,62409.59
2022-11-15T22:28:52.672Z,62409.59
2022-11-15T22:31:20.602Z,62409.59
2022-11-15T22:33:48.506Z,62409.59
2022-11-15T22:36:16.071Z,62409.59
2022-11-15T22:38:44.096Z,62409.59
2022-11-15T22:41:11.637Z,62409.59
2022-11-15T22:43:39.516Z,62409.59
2022-11-15T22:46:06.930Z,62409.59
2022-11-15T22:48:38.377Z,62409.59
2022-11-15T22:51:06.668Z,62409.59
2022-11-15T22:53:34.398Z,62409.59
2022-11-15T22:56:03.997Z,62409.59
2022-11-15T22:58:33.544Z,62409.59
2022-11-15T23:01:03.588Z,62409.59
2022-11-15T23:03:32.877Z,62409.59
2022-11-15T23:06:05.779Z,62409.59
2022-11-15T23:08:34.303Z,62409.59
2022-11-15T23:11:21.904Z,62409.59
2022-11-15T23:13:53.297Z,62409.59
2022-11-15T23:16:25.992Z,62409.59
2022-11-15T23:18:58.325Z,62409.59
2022-11-15T23:22:04.038Z,62409.59
2022-11-15T23:24:33.303Z,62409.59
2022-11-15T23:27:03.810Z,62409.59
2022-11-15T23:29:31.561Z,62409.59
2022-11-15T23:32:17.430Z,62409.59
2022-11-15T23:34:46.570Z,62409.59
2022-11-15T23:37:15.535Z,62409.59
2022-11-15T23:39:43.275Z,62409.59
2022-11-15T23:42:20.150Z,62409.59
2022-11-15T23:44:50.341Z,62409.59
2022-11-15T23:47:18.964Z,62409.59
2022-11-15T23:49:47.120Z,62409.59
2022-11-15T23:52:15.787Z,62409.59
2022-11-15T23:54:43.605Z,62409.59
2022-11-15T23:57:12.637Z,62409.59
2022-11-15T23:59:41.272Z,62409.59
